Aeroboteco Virtual Airlines! Uma nuvem a frente.



 INFORMAÇÕES METEOROLÓGICAS
METAR FOR LEGR
ADDS - METARS form results

(0956 UTC 24 June 2019)
Data provider http://aviationweather.gov/metar/data/
 
METAR text: LEGR 240930Z VRB02KT CAVOK 26/11 Q1015
Conditions at: LEGR (GRANADA AIRPORT , ES) observed 0930 UTC 24 June 2019
Temperature: 26.0°C (79°F)
Dewpoint: 11.0°C (52°F) [RH = 39%]
Pressure (altimeter): 29.97 inches Hg (1015.0 mb)
Winds: variable direction winds at 2 MPH (2 knots; 1.0 m/s)
Visibility: 6 or more miles (10+ km)
Ceiling: ceiling and visibility are OK
Clouds: unknown
Weather: no significant weather observed at this time

METAR text: LEGR 240900Z VRB01KT CAVOK 25/10 Q1016
Conditions at: LEGR (GRANADA AIRPORT , ES) observed 0900 UTC 24 June 2019
Temperature: 25.0°C (77°F)
Dewpoint: 10.0°C (50°F) [RH = 39%]
Pressure (altimeter): 30.00 inches Hg (1016.0 mb)
Winds: variable direction winds at 1 MPH (1 knots; 0.5 m/s)
Visibility: 6 or more miles (10+ km)
Ceiling: ceiling and visibility are OK
Clouds: unknown
Weather: no significant weather observed at this time

Forecast for: LEGR (GRANADA AIRPORT , ES)
Text: TAF LEGR 240800Z 2409/2509 VRB02KT CAVOK TX36/2415Z TN16/2505Z
Forecast period: 0900 to 1200 UTC 24 June 2019
Forecast type: FROM: standard forecast or significant change
Winds: variable direction winds at 2 MPH (2 knots; 1.0 m/s)
Visibility: 6 or more miles 10+ km)
Ceiling: unknown
Clouds: missing
Weather: no significant weather forecast for this period
Text: BECMG 2412/2414 28010KT
Forecast period: 1200 to 2000 UTC 24 June 2019
Forecast type: BECOMING: Conditions expected to become as follows by 1400 UTC 24 June 2019
Winds: from the W (280 degrees) at 12 MPH (10 knots; 5.1 m/s)
Visibility: 6 or more miles 10+ km)
Ceiling: unknown
Clouds: missing
Weather: no significant weather forecast for this period
Text: BECMG 2420/2424 VRB02KT
Forecast period: 2000 UTC 24 June 2019 to 0900 UTC 25 June 2019
Forecast type: BECOMING: Conditions expected to become as follows by 0000 UTC 25 June 2019
Winds: variable direction winds at 2 MPH (2 knots; 1.0 m/s)
Visibility: 6 or more miles 10+ km)
Ceiling: unknown
Clouds: missing
Weather: no significant weather forecast for this period

 MAPA DO AEROPORTO

 INFORMAÇÕES DA PISTA
Pista 09 Tamanho da pista 9514 ft Largura da pista 148 ft
Elevação da pista 1842 ft Ranhura da pista 0 ft Proa da pista 90
Pista 27 Tamanho da pista 9514 ft Largura da pista 148 ft
Elevação da pista 1860 ft Ranhura da pista 0 ft Proa da pista 270

 FREQUÊNCIAS DO AEROPORTO
Tipo GND Nome GND Frequência 121.7 MHZ
Tipo TWR Nome TWR Frequência 118.85 MHZ

 AUXÍLIOS DE NAVEGAÇÃO PRÓXIMOS AO AEROPORTO
Tipo VOR-DME Nome Granada Frequência 113400 KHZ